createdAt,value
2019-02-21T00:01:12.020Z,99.90
2019-02-21T00:04:12.601Z,99.90
2019-02-21T00:07:13.726Z,99.90
2019-02-21T00:10:14.576Z,99.90
2019-02-21T00:13:15.410Z,99.90
2019-02-21T00:16:23.721Z,99.90
2019-02-21T00:19:31.933Z,99.90
2019-02-21T00:22:32.282Z,99.90
2019-02-21T00:25:33.276Z,99.90
2019-02-21T00:28:33.834Z,99.90
2019-02-21T00:31:34.603Z,99.90
2019-02-21T00:34:35.503Z,99.90
2019-02-21T00:37:36.177Z,99.90
2019-02-21T00:40:37.875Z,99.90
2019-02-21T00:43:39.110Z,99.90
2019-02-21T00:46:39.930Z,99.90
2019-02-21T00:49:40.513Z,99.90
2019-02-21T00:52:41.301Z,99.90
2019-02-21T00:55:41.720Z,99.90
2019-02-21T00:58:42.610Z,99.90
2019-02-21T01:01:43.399Z,99.90
2019-02-21T01:04:44.197Z,99.90
2019-02-21T01:07:45.286Z,99.90
2019-02-21T01:10:45.992Z,99.90
2019-02-21T01:13:47.425Z,99.90
2019-02-21T01:16:48.205Z,99.90
2019-02-21T01:19:49.219Z,99.90
2019-02-21T01:22:50.113Z,99.90
2019-02-21T01:25:50.986Z,99.90
2019-02-21T01:28:52.053Z,99.90
2019-02-21T01:31:53.263Z,99.90
2019-02-21T01:34:54.259Z,99.90
2019-02-21T01:37:55.288Z,99.90
2019-02-21T01:40:56.395Z,99.90
2019-02-21T01:43:57.637Z,99.90
2019-02-21T01:46:58.727Z,99.90
2019-02-21T01:49:59.569Z,99.90
2019-02-21T01:53:00.382Z,99.90
2019-02-21T01:56:01.783Z,99.90
2019-02-21T01:59:02.800Z,99.90
2019-02-21T02:02:03.855Z,99.90
2019-02-21T02:05:04.725Z,99.90
2019-02-21T02:08:06.657Z,99.90
2019-02-21T02:11:07.596Z,99.90
2019-02-21T02:14:08.545Z,99.90
2019-02-21T02:17:09.438Z,99.90
2019-02-21T02:20:10.260Z,99.90
2019-02-21T02:23:10.965Z,99.90
2019-02-21T02:26:12.286Z,99.90
2019-02-21T02:29:13.305Z,99.90
2019-02-21T02:34:59.865Z,99.90
2019-02-21T02:38:01.023Z,99.90
2019-02-21T02:41:01.605Z,99.90
2019-02-21T02:46:45.684Z,99.90
2019-02-21T02:49:46.572Z,99.90
2019-02-21T02:52:47.772Z,99.90
2019-02-21T02:55:48.986Z,99.90
2019-02-21T02:58:49.708Z,99.90
2019-02-21T03:01:50.946Z,99.90
2019-02-21T03:04:52.194Z,99.90
2019-02-21T03:07:53.238Z,99.90
2019-02-21T03:10:54.311Z,99.90
2019-02-21T03:13:55.129Z,99.90
2019-02-21T03:16:56.534Z,99.90
2019-02-21T03:19:57.176Z,99.90
2019-02-21T03:22:59.000Z,99.90
2019-02-21T03:26:00.633Z,99.90
2019-02-21T03:29:03.981Z,99.90
2019-02-21T03:32:04.876Z,99.90
2019-02-21T03:35:06.214Z,99.90
2019-02-21T03:38:07.923Z,99.90
2019-02-21T03:41:08.710Z,99.90
2019-02-21T03:44:09.372Z,99.90
2019-02-21T03:47:10.027Z,99.90
2019-02-21T03:50:10.751Z,99.90
2019-02-21T03:53:11.983Z,99.90
2019-02-21T03:56:13.791Z,99.90
2019-02-21T03:59:15.552Z,99.90
2019-02-21T04:02:16.419Z,99.90
2019-02-21T04:05:17.718Z,99.90
2019-02-21T04:08:18.485Z,99.90
2019-02-21T04:11:18.997Z,99.90
2019-02-21T04:14:21.035Z,99.90
2019-02-21T04:17:23.174Z,99.90
2019-02-21T04:20:24.477Z,99.90
2019-02-21T04:23:25.800Z,99.90
2019-02-21T04:26:26.762Z,99.90
2019-02-21T04:29:27.489Z,99.90
2019-02-21T04:32:28.434Z,99.90
2019-02-21T04:35:29.901Z,99.90
2019-02-21T04:38:31.788Z,99.90
2019-02-21T04:41:32.794Z,99.90
2019-02-21T04:44:33.417Z,99.90
2019-02-21T04:47:34.451Z,99.90
2019-02-21T04:50:35.339Z,99.90
2019-02-21T04:53:35.952Z,99.90
2019-02-21T04:56:36.638Z,99.90
2019-02-21T04:59:38.023Z,99.90
2019-02-21T05:02:38.545Z,99.90
2019-02-21T05:05:39.786Z,99.90
2019-02-21T05:08:41.117Z,99.90
2019-02-21T05:11:41.718Z,99.90
2019-02-21T05:14:43.082Z,99.90
2019-02-21T05:17:43.898Z,99.90
2019-02-21T05:20:32.497Z,99.90
2019-02-21T05:23:40.670Z,99.90
2019-02-21T05:29:55.211Z,99.90
2019-02-21T05:35:58.734Z,99.90
2019-02-21T05:42:25.394Z,99.90
2019-02-21T05:49:00.490Z,99.90
2019-02-21T05:55:17.592Z,99.90
2019-02-21T05:58:23.472Z,99.90
2019-02-21T06:01:43.837Z,99.90
2019-02-21T06:05:04.592Z,99.90
2019-02-21T06:08:06.198Z,99.90
2019-02-21T06:11:30.547Z,99.90
2019-02-21T06:14:36.015Z,99.90
2019-02-21T06:17:38.355Z,99.90
2019-02-21T06:20:41.131Z,99.90
2019-02-21T06:24:02.235Z,99.90
2019-02-21T06:27:05.305Z,99.90
2019-02-21T06:30:07.855Z,99.90
2019-02-21T06:33:09.288Z,99.90
2019-02-21T06:36:10.379Z,99.90
2019-02-21T06:39:11.751Z,99.90
2019-02-21T06:42:13.027Z,99.90
2019-02-21T06:45:14.051Z,99.90
2019-02-21T06:48:15.194Z,99.90
2019-02-21T06:51:16.038Z,99.90
2019-02-21T06:54:16.754Z,99.90
2019-02-21T06:57:17.776Z,99.90
2019-02-21T07:00:18.453Z,99.90
2019-02-21T07:03:19.205Z,99.90
2019-02-21T07:06:30.831Z,99.90
2019-02-21T07:09:22.479Z,99.90
2019-02-21T07:12:23.429Z,99.90
2019-02-21T07:15:24.052Z,99.90
2019-02-21T07:18:25.305Z,99.90
2019-02-21T07:21:26.070Z,99.90
2019-02-21T07:24:27.111Z,99.90
2019-02-21T07:27:28.422Z,99.90
2019-02-21T07:30:29.506Z,99.90
2019-02-21T07:33:30.597Z,99.90
2019-02-21T07:36:31.513Z,99.90
2019-02-21T07:39:35.958Z,99.90
2019-02-21T07:42:36.142Z,99.90
2019-02-21T07:45:37.186Z,99.90
2019-02-21T07:48:38.733Z,99.90
2019-02-21T07:51:41.488Z,99.90
2019-02-21T07:54:42.741Z,99.90
2019-02-21T07:57:43.703Z,99.90
2019-02-21T08:00:44.737Z,99.90
2019-02-21T08:03:48.294Z,99.90
2019-02-21T08:06:48.301Z,99.90
2019-02-21T08:09:48.965Z,99.90
2019-02-21T08:12:49.656Z,99.90
2019-02-21T08:15:50.921Z,99.90
2019-02-21T08:18:51.567Z,99.90
2019-02-21T08:21:52.519Z,99.90
2019-02-21T08:24:56.452Z,99.90
2019-02-21T08:27:56.882Z,99.90
2019-02-21T08:30:58.222Z,99.90
2019-02-21T08:34:04.536Z,99.90
2019-02-21T08:37:05.506Z,99.90
2019-02-21T08:40:06.853Z,99.90
2019-02-21T08:43:07.833Z,99.90
2019-02-21T08:46:08.389Z,99.90
2019-02-21T08:49:09.363Z,99.90
2019-02-21T08:52:11.111Z,99.90
2019-02-21T08:55:12.110Z,99.90
2019-02-21T08:58:12.859Z,99.90
2019-02-21T09:01:14.350Z,99.90
2019-02-21T09:04:26.769Z,99.90
2019-02-21T09:07:17.711Z,99.90
2019-02-21T09:10:18.247Z,99.90
2019-02-21T09:13:19.541Z,99.90
2019-02-21T09:16:20.905Z,99.90
2019-02-21T09:19:22.731Z,99.90
2019-02-21T09:22:23.963Z,99.90
2019-02-21T09:25:25.511Z,99.90
2019-02-21T09:28:26.667Z,99.90
2019-02-21T09:31:28.385Z,99.60
2019-02-21T09:34:29.225Z,98.40
2019-02-21T09:37:30.858Z,97.00
2019-02-21T09:40:32.734Z,95.80
2019-02-21T09:43:34.036Z,95.00
2019-02-21T09:46:35.158Z,94.40
2019-02-21T09:49:36.602Z,95.10
2019-02-21T09:52:37.961Z,93.30
2019-02-21T09:55:39.157Z,86.80
2019-02-21T09:58:40.681Z,86.20
2019-02-21T10:01:42.019Z,81.30
2019-02-21T10:04:43.633Z,78.80
2019-02-21T10:07:45.037Z,76.70
2019-02-21T10:10:46.835Z,76.60
2019-02-21T10:13:48.047Z,77.50
2019-02-21T10:16:49.736Z,76.50
2019-02-21T10:19:50.977Z,77.20
2019-02-21T10:22:52.530Z,70.40
2019-02-21T10:25:54.246Z,71.30
2019-02-21T10:28:55.953Z,69.30
2019-02-21T10:31:57.441Z,60.80
2019-02-21T10:34:58.423Z,61.60
2019-02-21T10:38:00.359Z,61.80
2019-02-21T10:41:01.254Z,62.40
2019-02-21T10:44:03.019Z,62.30
2019-02-21T10:47:04.718Z,59.90
2019-02-21T10:50:06.267Z,58.70
2019-02-21T10:53:07.848Z,57.10
2019-02-21T10:56:09.357Z,56.10
2019-02-21T10:59:10.757Z,53.50
2019-02-21T11:02:11.430Z,52.80
2019-02-21T11:05:13.041Z,51.50
2019-02-21T11:08:14.229Z,52.90
2019-02-21T11:11:17.213Z,52.20
2019-02-21T11:14:18.213Z,52.00
2019-02-21T11:17:18.988Z,51.10
2019-02-21T11:20:20.425Z,48.70
2019-02-21T11:23:21.821Z,48.20
2019-02-21T11:26:10.911Z,48.50
2019-02-21T11:29:19.133Z,46.40
2019-02-21T11:32:20.520Z,47.10
2019-02-21T11:35:21.284Z,44.40
2019-02-21T11:38:21.884Z,44.80
2019-02-21T11:41:23.027Z,46.40
2019-02-21T11:44:24.368Z,45.70
2019-02-21T11:47:25.807Z,45.10
2019-02-21T11:50:27.314Z,43.60
2019-02-21T11:53:16.127Z,44.60
2019-02-21T11:56:24.257Z,45.40
2019-02-21T11:59:25.853Z,43.80
2019-02-21T12:02:26.962Z,42.90
2019-02-21T12:05:31.570Z,43.80
2019-02-21T12:08:30.665Z,43.60
2019-02-21T12:11:32.326Z,41.90
2019-02-21T12:14:33.501Z,42.00
2019-02-21T12:17:34.879Z,36.80
2019-02-21T12:20:35.396Z,38.50
2019-02-21T12:23:36.145Z,39.50
2019-02-21T12:26:37.631Z,40.00
2019-02-21T12:29:38.301Z,39.00
2019-02-21T12:32:38.997Z,40.70
2019-02-21T12:35:39.570Z,39.60
2019-02-21T12:38:40.161Z,39.50
2019-02-21T12:41:41.645Z,40.40
2019-02-21T12:44:42.698Z,39.60
2019-02-21T12:47:50.656Z,33.00
2019-02-21T12:50:46.201Z,35.80
2019-02-21T12:56:30.861Z,32.80
2019-02-21T12:59:31.599Z,30.50
2019-02-21T13:02:32.979Z,31.90
2019-02-21T13:05:41.067Z,34.40
2019-02-21T13:08:36.871Z,36.90
2019-02-21T13:11:38.701Z,35.90
2019-02-21T13:14:39.784Z,36.80
2019-02-21T13:17:40.774Z,36.90
2019-02-21T13:20:41.136Z,35.30
2019-02-21T13:23:43.000Z,33.00
2019-02-21T13:26:44.230Z,33.60
2019-02-21T13:29:45.255Z,33.80
2019-02-21T13:32:46.272Z,35.90
2019-02-21T13:35:52.615Z,38.00
2019-02-21T13:38:51.564Z,38.20
2019-02-21T13:41:57.473Z,40.00
2019-02-21T13:44:59.025Z,40.20
2019-02-21T13:48:00.745Z,41.40
2019-02-21T13:51:02.441Z,41.50
2019-02-21T13:54:04.029Z,42.90
2019-02-21T13:57:05.174Z,41.20
2019-02-21T14:00:05.941Z,38.90
2019-02-21T14:03:07.270Z,38.70
2019-02-21T14:08:51.914Z,38.50
2019-02-21T14:11:53.136Z,39.60
2019-02-21T14:14:53.905Z,37.90
2019-02-21T14:17:54.859Z,36.30
2019-02-21T14:20:55.957Z,37.70
2019-02-21T14:23:57.352Z,35.30
2019-02-21T14:26:58.760Z,36.20
2019-02-21T14:30:00.337Z,38.90
2019-02-21T14:33:01.530Z,39.60
2019-02-21T14:36:02.845Z,40.00
2019-02-21T14:39:05.005Z,39.50
2019-02-21T14:42:06.784Z,38.00
2019-02-21T14:45:08.153Z,39.10
2019-02-21T14:48:09.461Z,38.70
2019-02-21T14:51:11.219Z,37.10
2019-02-21T14:54:12.913Z,38.20
2019-02-21T14:57:15.377Z,37.90
2019-02-21T15:00:17.062Z,38.50
2019-02-21T15:03:21.951Z,36.70
2019-02-21T15:06:27.099Z,38.00
2019-02-21T15:09:24.643Z,38.00
2019-02-21T15:12:26.252Z,38.50
2019-02-21T15:15:27.862Z,37.80
2019-02-21T15:18:29.534Z,39.00
2019-02-21T15:21:31.193Z,40.30
2019-02-21T15:24:32.928Z,40.00
2019-02-21T15:27:34.688Z,38.90
2019-02-21T15:30:35.967Z,39.30
2019-02-21T15:33:25.130Z,39.80
2019-02-21T15:36:38.301Z,39.40
2019-02-21T15:39:36.386Z,41.50
2019-02-21T15:42:37.403Z,41.40
2019-02-21T15:45:39.159Z,42.10
2019-02-21T15:48:40.821Z,42.60
2019-02-21T15:51:42.427Z,42.40
2019-02-21T15:54:44.174Z,43.30
2019-02-21T15:57:45.958Z,43.10
2019-02-21T16:00:47.490Z,43.90
2019-02-21T16:03:49.185Z,43.80
2019-02-21T16:06:51.699Z,44.00
2019-02-21T16:09:53.383Z,44.80
2019-02-21T16:12:55.073Z,44.50
2019-02-21T16:15:56.524Z,45.10
2019-02-21T16:18:58.966Z,45.00
2019-02-21T16:22:00.373Z,45.30
2019-02-21T16:25:02.251Z,45.50
2019-02-21T16:28:03.362Z,45.90
2019-02-21T16:31:04.755Z,46.30
2019-02-21T16:34:06.020Z,46.80
2019-02-21T16:37:06.398Z,47.40
2019-02-21T16:40:07.009Z,46.70
2019-02-21T16:43:07.649Z,47.20
2019-02-21T16:46:08.954Z,47.50
2019-02-21T16:49:09.777Z,47.80
2019-02-21T16:52:10.158Z,48.00
2019-02-21T16:55:10.523Z,48.50
2019-02-21T16:58:11.598Z,48.40
2019-02-21T17:01:12.023Z,48.70
2019-02-21T17:04:12.469Z,49.00
2019-02-21T17:07:19.042Z,49.20
2019-02-21T17:10:15.455Z,48.70
2019-02-21T17:13:16.066Z,49.20
2019-02-21T17:16:17.073Z,49.30
2019-02-21T17:19:17.385Z,49.70
2019-02-21T17:22:17.821Z,50.30
2019-02-21T17:25:19.062Z,50.50
2019-02-21T17:28:19.497Z,51.90
2019-02-21T17:31:20.089Z,51.80
2019-02-21T17:34:20.740Z,51.70
2019-02-21T17:37:25.023Z,52.30
2019-02-21T17:40:23.378Z,52.60
2019-02-21T17:43:23.910Z,53.10
2019-02-21T17:46:24.430Z,53.60
2019-02-21T17:49:24.836Z,54.10
2019-02-21T17:52:27.211Z,53.90
2019-02-21T17:55:27.542Z,54.00
2019-02-21T17:58:28.280Z,53.80
2019-02-21T18:01:28.654Z,54.00
2019-02-21T18:04:29.376Z,54.20
2019-02-21T18:07:36.469Z,54.50
2019-02-21T18:10:33.172Z,54.50
2019-02-21T18:13:33.726Z,54.80
2019-02-21T18:16:34.369Z,54.90
2019-02-21T18:19:34.827Z,55.30
2019-02-21T18:22:35.634Z,55.40
2019-02-21T18:25:36.040Z,56.40
2019-02-21T18:28:36.462Z,56.60
2019-02-21T18:31:36.878Z,57.20
2019-02-21T18:34:37.549Z,57.80
2019-02-21T18:37:47.018Z,57.80
2019-02-21T18:40:40.001Z,58.40
2019-02-21T18:43:40.545Z,58.50
2019-02-21T18:46:41.002Z,58.90
2019-02-21T18:49:41.364Z,60.30
2019-02-21T18:52:41.807Z,60.70
2019-02-21T18:55:42.981Z,60.90
2019-02-21T18:58:44.031Z,61.40
2019-02-21T19:01:44.662Z,61.30
2019-02-21T19:04:45.741Z,61.90
2019-02-21T19:07:57.839Z,61.70
2019-02-21T19:10:37.176Z,62.20
2019-02-21T19:16:58.182Z,63.10
2019-02-21T19:19:59.225Z,64.80
2019-02-21T19:22:59.567Z,65.80
2019-02-21T19:26:00.680Z,66.70
2019-02-21T19:29:01.224Z,67.20
2019-02-21T19:32:01.743Z,67.10
2019-02-21T19:35:02.328Z,67.20
2019-02-21T19:38:10.347Z,68.90
2019-02-21T19:41:05.354Z,69.60
2019-02-21T19:44:08.816Z,69.70
2019-02-21T19:47:08.119Z,70.30
2019-02-21T19:50:09.272Z,71.10
2019-02-21T19:53:09.626Z,71.30
2019-02-21T19:56:10.762Z,72.10
2019-02-21T19:59:11.167Z,72.30
2019-02-21T20:02:11.525Z,72.90
2019-02-21T20:05:12.065Z,73.50
2019-02-21T20:08:20.898Z,73.90
2019-02-21T20:11:15.686Z,74.80
2019-02-21T20:14:16.513Z,75.30
2019-02-21T20:17:17.260Z,76.30
2019-02-21T20:20:18.475Z,77.80
2019-02-21T20:23:18.883Z,78.60
2019-02-21T20:26:19.294Z,81.40
2019-02-21T20:29:19.742Z,83.90
2019-02-21T20:32:20.716Z,84.60
2019-02-21T20:35:21.343Z,84.90
2019-02-21T20:38:31.622Z,86.40
2019-02-21T20:41:23.894Z,87.10
2019-02-21T20:44:24.648Z,88.50
2019-02-21T20:47:25.265Z,89.40
2019-02-21T20:50:26.062Z,90.00
2019-02-21T20:53:26.635Z,90.50
2019-02-21T20:56:26.916Z,91.10
2019-02-21T20:59:27.289Z,91.50
2019-02-21T21:02:27.817Z,91.90
2019-02-21T21:05:28.254Z,92.60
2019-02-21T21:08:29.157Z,93.00
2019-02-21T21:11:30.112Z,94.20
2019-02-21T21:14:31.263Z,94.50
2019-02-21T21:17:31.593Z,95.30
2019-02-21T21:20:32.391Z,96.20
2019-02-21T21:23:32.642Z,96.70
2019-02-21T21:26:33.122Z,96.90
2019-02-21T21:29:33.557Z,97.10
2019-02-21T21:32:34.342Z,97.40
2019-02-21T21:35:34.853Z,98.30
2019-02-21T21:38:35.100Z,98.40
2019-02-21T21:41:36.690Z,99.10
2019-02-21T21:44:37.795Z,99.70
2019-02-21T21:47:38.258Z,99.90
2019-02-21T21:50:39.373Z,99.90
2019-02-21T21:53:39.777Z,99.90
2019-02-21T21:56:40.612Z,99.90
2019-02-21T21:59:41.135Z,99.90
2019-02-21T22:02:41.486Z,99.90
2019-02-21T22:05:42.129Z,99.90
2019-02-21T22:08:42.846Z,99.90
2019-02-21T22:11:43.158Z,99.90
2019-02-21T22:14:44.300Z,99.90
2019-02-21T22:17:44.626Z,99.90
2019-02-21T22:20:45.065Z,99.90
2019-02-21T22:23:45.858Z,99.90
2019-02-21T22:26:46.654Z,99.90
2019-02-21T22:29:47.261Z,99.90
2019-02-21T22:32:47.929Z,99.90
2019-02-21T22:35:48.305Z,99.90
2019-02-21T22:38:48.877Z,99.90
2019-02-21T22:41:50.149Z,99.90
2019-02-21T22:44:50.525Z,99.90
2019-02-21T22:47:51.266Z,99.90
2019-02-21T22:50:52.139Z,99.90
2019-02-21T22:53:52.485Z,99.90
2019-02-21T22:56:53.696Z,99.90
2019-02-21T22:59:54.428Z,99.90
2019-02-21T23:02:55.530Z,99.90
2019-02-21T23:05:56.378Z,99.90
2019-02-21T23:08:56.657Z,99.90
2019-02-21T23:11:57.339Z,99.90
2019-02-21T23:14:57.811Z,99.90
2019-02-21T23:17:58.645Z,99.90
2019-02-21T23:20:59.514Z,99.90
2019-02-21T23:24:00.353Z,99.90
2019-02-21T23:27:00.674Z,99.90
2019-02-21T23:30:01.000Z,99.90
2019-02-21T23:33:01.801Z,99.90
2019-02-21T23:36:02.632Z,99.90
2019-02-21T23:39:03.969Z,99.90
2019-02-21T23:42:04.782Z,99.90
2019-02-21T23:45:05.157Z,99.90
2019-02-21T23:48:05.978Z,99.90
2019-02-21T23:51:06.362Z,99.90
2019-02-21T23:54:06.693Z,99.90
2019-02-21T23:57:07.207Z,99.90
